Vineyard, Missouri
Current Conditions -  °F | °C
As of 6:15 PM on Thursday 27 Nov 2014 (Local Time) from KHFJ Reporting Station
Clear Clear  
Wind Chill: 29°   Ceiling: Unl
Heat Index: 34°   Visibility: 10mi
Dew Point: 23°   Wind: 6mph
Humidity: 65%   Direction: 150°SSE
Pressure: 30.37"   Gusts: NA
Location:  37.1103°N, 93.9564°W
Report Text: KHFJ 280015Z AUTO 15005KT 10SM CLR 01/M05 A3037 RMK AO2
Loading
Personal Weather Stations






























Interactive Weather Map New forecast layout! Learn more

10-Day Weather Forecast

Advertisements
Track Severe Weather on mobile